sensor_id;sensor_type;location;lat;lon;timestamp;P1;durP1;ratioP1;P2;durP2;ratioP2
72688;SDS011;61053;52.166;4.506;2022-08-19T00:00:28;23.58;;;8.18;;
72688;SDS011;61053;52.166;4.506;2022-08-19T00:02:54;15.25;;;7.38;;
72688;SDS011;61053;52.166;4.506;2022-08-19T00:05:20;12.68;;;7.05;;
72688;SDS011;61053;52.166;4.506;2022-08-19T00:07:47;14.02;;;7.50;;
72688;SDS011;61053;52.166;4.506;2022-08-19T00:10:15;16.85;;;7.68;;
72688;SDS011;61053;52.166;4.506;2022-08-19T00:12:42;13.60;;;7.15;;
72688;SDS011;61053;52.166;4.506;2022-08-19T00:15:09;11.90;;;7.32;;
72688;SDS011;61053;52.166;4.506;2022-08-19T00:17:39;13.05;;;7.22;;
72688;SDS011;61053;52.166;4.506;2022-08-19T00:20:08;13.23;;;7.22;;
72688;SDS011;61053;52.166;4.506;2022-08-19T00:22:37;13.25;;;6.90;;
72688;SDS011;61053;52.166;4.506;2022-08-19T00:25:06;14.15;;;7.45;;
72688;SDS011;61053;52.166;4.506;2022-08-19T00:27:32;17.25;;;8.00;;
72688;SDS011;61053;52.166;4.506;2022-08-19T00:29:59;12.68;;;7.72;;
72688;SDS011;61053;52.166;4.506;2022-08-19T00:32:28;13.85;;;7.55;;
72688;SDS011;61053;52.166;4.506;2022-08-19T00:34:55;15.07;;;7.95;;
72688;SDS011;61053;52.166;4.506;2022-08-19T00:37:22;11.73;;;7.68;;
72688;SDS011;61053;52.166;4.506;2022-08-19T00:39:51;11.00;;;7.70;;
72688;SDS011;61053;52.166;4.506;2022-08-19T00:42:18;13.73;;;7.70;;
72688;SDS011;61053;52.166;4.506;2022-08-19T00:44:47;12.88;;;7.22;;
72688;SDS011;61053;52.166;4.506;2022-08-19T00:47:12;15.05;;;7.82;;
72688;SDS011;61053;52.166;4.506;2022-08-19T00:49:41;11.20;;;7.95;;
72688;SDS011;61053;52.166;4.506;2022-08-19T00:55:18;12.27;;;7.40;;
72688;SDS011;61053;52.166;4.506;2022-08-19T00:57:48;12.73;;;7.22;;
72688;SDS011;61053;52.166;4.506;2022-08-19T01:00:21;10.13;;;7.60;;
72688;SDS011;61053;52.166;4.506;2022-08-19T01:02:50;12.57;;;7.75;;
72688;SDS011;61053;52.166;4.506;2022-08-19T01:05:19;11.75;;;7.60;;
72688;SDS011;61053;52.166;4.506;2022-08-19T01:07:52;12.10;;;7.47;;
72688;SDS011;61053;52.166;4.506;2022-08-19T01:10:22;12.77;;;9.05;;
72688;SDS011;61053;52.166;4.506;2022-08-19T01:12:52;10.23;;;7.68;;
72688;SDS011;61053;52.166;4.506;2022-08-19T01:15:21;16.25;;;8.27;;
72688;SDS011;61053;52.166;4.506;2022-08-19T01:17:54;12.10;;;8.00;;
72688;SDS011;61053;52.166;4.506;2022-08-19T01:20:24;12.10;;;8.45;;
72688;SDS011;61053;52.166;4.506;2022-08-19T01:22:52;14.48;;;8.27;;
72688;SDS011;61053;52.166;4.506;2022-08-19T01:25:23;14.60;;;9.05;;
72688;SDS011;61053;52.166;4.506;2022-08-19T01:27:56;15.95;;;8.23;;
72688;SDS011;61053;52.166;4.506;2022-08-19T01:30:25;15.90;;;8.80;;
72688;SDS011;61053;52.166;4.506;2022-08-19T01:32:59;15.85;;;8.88;;
72688;SDS011;61053;52.166;4.506;2022-08-19T01:35:25;12.90;;;9.00;;
72688;SDS011;61053;52.166;4.506;2022-08-19T01:38:00;16.38;;;9.65;;
72688;SDS011;61053;52.166;4.506;2022-08-19T01:40:36;15.77;;;8.88;;
72688;SDS011;61053;52.166;4.506;2022-08-19T01:43:05;16.85;;;9.60;;
72688;SDS011;61053;52.166;4.506;2022-08-19T01:45:32;17.75;;;10.35;;
72688;SDS011;61053;52.166;4.506;2022-08-19T01:47:59;26.35;;;11.43;;
72688;SDS011;61053;52.166;4.506;2022-08-19T01:50:26;18.70;;;11.43;;
72688;SDS011;61053;52.166;4.506;2022-08-19T01:52:53;17.42;;;11.35;;
72688;SDS011;61053;52.166;4.506;2022-08-19T01:55:20;22.83;;;12.38;;
72688;SDS011;61053;52.166;4.506;2022-08-19T01:57:50;16.02;;;11.02;;
72688;SDS011;61053;52.166;4.506;2022-08-19T02:00:23;22.58;;;11.93;;
72688;SDS011;61053;52.166;4.506;2022-08-19T02:02:53;17.00;;;12.38;;
72688;SDS011;61053;52.166;4.506;2022-08-19T02:05:19;14.90;;;11.27;;
72688;SDS011;61053;52.166;4.506;2022-08-19T02:07:46;19.73;;;11.98;;
72688;SDS011;61053;52.166;4.506;2022-08-19T02:10:21;21.58;;;12.30;;
72688;SDS011;61053;52.166;4.506;2022-08-19T02:12:48;21.40;;;12.85;;
72688;SDS011;61053;52.166;4.506;2022-08-19T02:15:15;19.52;;;12.10;;
72688;SDS011;61053;52.166;4.506;2022-08-19T02:17:43;24.48;;;12.82;;
72688;SDS011;61053;52.166;4.506;2022-08-19T02:20:13;19.70;;;12.52;;
72688;SDS011;61053;52.166;4.506;2022-08-19T02:22:40;23.58;;;13.70;;
72688;SDS011;61053;52.166;4.506;2022-08-19T02:25:07;20.63;;;14.88;;
72688;SDS011;61053;52.166;4.506;2022-08-19T02:27:38;24.10;;;14.70;;
72688;SDS011;61053;52.166;4.506;2022-08-19T02:30:06;26.25;;;15.02;;
72688;SDS011;61053;52.166;4.506;2022-08-19T02:32:42;20.73;;;15.23;;
72688;SDS011;61053;52.166;4.506;2022-08-19T02:35:08;28.38;;;16.98;;
72688;SDS011;61053;52.166;4.506;2022-08-19T02:37:34;34.33;;;19.02;;
72688;SDS011;61053;52.166;4.506;2022-08-19T02:40:27;40.55;;;20.52;;
72688;SDS011;61053;52.166;4.506;2022-08-19T02:42:54;41.75;;;21.85;;
72688;SDS011;61053;52.166;4.506;2022-08-19T02:45:21;36.10;;;21.38;;
72688;SDS011;61053;52.166;4.506;2022-08-19T02:47:47;36.35;;;22.63;;
72688;SDS011;61053;52.166;4.506;2022-08-19T02:50:13;46.95;;;26.15;;
72688;SDS011;61053;52.166;4.506;2022-08-19T02:52:39;56.88;;;29.10;;
72688;SDS011;61053;52.166;4.506;2022-08-19T02:55:05;43.72;;;25.60;;
72688;SDS011;61053;52.166;4.506;2022-08-19T02:57:32;55.50;;;29.90;;
72688;SDS011;61053;52.166;4.506;2022-08-19T02:59:59;55.38;;;28.63;;
72688;SDS011;61053;52.166;4.506;2022-08-19T03:02:24;55.85;;;29.65;;
72688;SDS011;61053;52.166;4.506;2022-08-19T03:04:50;56.33;;;28.42;;
72688;SDS011;61053;52.166;4.506;2022-08-19T03:07:16;43.92;;;25.63;;
72688;SDS011;61053;52.166;4.506;2022-08-19T03:09:43;57.95;;;27.77;;
72688;SDS011;61053;52.166;4.506;2022-08-19T03:12:09;54.97;;;28.45;;
72688;SDS011;61053;52.166;4.506;2022-08-19T03:14:36;51.15;;;29.05;;
72688;SDS011;61053;52.166;4.506;2022-08-19T03:17:02;54.25;;;28.67;;
72688;SDS011;61053;52.166;4.506;2022-08-19T03:19:29;56.47;;;29.77;;
72688;SDS011;61053;52.166;4.506;2022-08-19T03:21:56;52.95;;;27.92;;
72688;SDS011;61053;52.166;4.506;2022-08-19T03:24:25;54.67;;;26.88;;
72688;SDS011;61053;52.166;4.506;2022-08-19T03:26:53;53.88;;;29.20;;
72688;SDS011;61053;52.166;4.506;2022-08-19T03:29:26;58.63;;;28.23;;
72688;SDS011;61053;52.166;4.506;2022-08-19T03:31:56;55.60;;;29.40;;
72688;SDS011;61053;52.166;4.506;2022-08-19T03:34:28;59.05;;;27.90;;
72688;SDS011;61053;52.166;4.506;2022-08-19T03:36:55;60.53;;;28.73;;
72688;SDS011;61053;52.166;4.506;2022-08-19T03:39:23;56.60;;;29.90;;
72688;SDS011;61053;52.166;4.506;2022-08-19T03:41:53;55.08;;;30.35;;
72688;SDS011;61053;52.166;4.506;2022-08-19T03:44:25;71.32;;;30.95;;
72688;SDS011;61053;52.166;4.506;2022-08-19T03:46:55;55.60;;;27.63;;
72688;SDS011;61053;52.166;4.506;2022-08-19T03:49:25;59.08;;;28.45;;
72688;SDS011;61053;52.166;4.506;2022-08-19T03:51:56;61.33;;;29.93;;
72688;SDS011;61053;52.166;4.506;2022-08-19T03:54:25;61.85;;;30.48;;
72688;SDS011;61053;52.166;4.506;2022-08-19T03:56:56;74.45;;;31.23;;
72688;SDS011;61053;52.166;4.506;2022-08-19T03:59:26;59.88;;;29.23;;
72688;SDS011;61053;52.166;4.506;2022-08-19T04:01:59;63.35;;;30.25;;
72688;SDS011;61053;52.166;4.506;2022-08-19T04:04:38;63.53;;;31.45;;
72688;SDS011;61053;52.166;4.506;2022-08-19T04:07:08;64.03;;;30.48;;
72688;SDS011;61053;52.166;4.506;2022-08-19T04:09:36;70.10;;;30.92;;
72688;SDS011;61053;52.166;4.506;2022-08-19T04:12:03;65.22;;;29.75;;
72688;SDS011;61053;52.166;4.506;2022-08-19T04:14:30;70.93;;;32.90;;
72688;SDS011;61053;52.166;4.506;2022-08-19T04:16:57;64.75;;;31.85;;
72688;SDS011;61053;52.166;4.506;2022-08-19T04:19:25;74.28;;;33.05;;
72688;SDS011;61053;52.166;4.506;2022-08-19T04:21:52;77.45;;;35.17;;
72688;SDS011;61053;52.166;4.506;2022-08-19T04:24:20;78.47;;;33.42;;
72688;SDS011;61053;52.166;4.506;2022-08-19T04:26:47;78.47;;;35.33;;
72688;SDS011;61053;52.166;4.506;2022-08-19T04:29:15;67.70;;;32.65;;
72688;SDS011;61053;52.166;4.506;2022-08-19T04:31:46;82.40;;;34.65;;
72688;SDS011;61053;52.166;4.506;2022-08-19T04:34:15;87.28;;;38.38;;
72688;SDS011;61053;52.166;4.506;2022-08-19T04:36:43;84.60;;;38.55;;
72688;SDS011;61053;52.166;4.506;2022-08-19T04:39:13;89.97;;;40.17;;
72688;SDS011;61053;52.166;4.506;2022-08-19T04:41:41;102.22;;;43.33;;
72688;SDS011;61053;52.166;4.506;2022-08-19T04:44:26;98.60;;;39.15;;
72688;SDS011;61053;52.166;4.506;2022-08-19T04:46:55;97.97;;;40.90;;
72688;SDS011;61053;52.166;4.506;2022-08-19T04:49:21;103.35;;;41.40;;
72688;SDS011;61053;52.166;4.506;2022-08-19T04:51:48;107.78;;;45.22;;
72688;SDS011;61053;52.166;4.506;2022-08-19T04:54:19;109.35;;;42.67;;
72688;SDS011;61053;52.166;4.506;2022-08-19T04:56:47;103.85;;;42.15;;
72688;SDS011;61053;52.166;4.506;2022-08-19T04:59:17;124.70;;;46.47;;
72688;SDS011;61053;52.166;4.506;2022-08-19T05:01:45;113.40;;;44.95;;
72688;SDS011;61053;52.166;4.506;2022-08-19T05:04:15;115.63;;;45.65;;
72688;SDS011;61053;52.166;4.506;2022-08-19T05:06:44;107.88;;;45.72;;
72688;SDS011;61053;52.166;4.506;2022-08-19T05:09:12;118.40;;;44.60;;
72688;SDS011;61053;52.166;4.506;2022-08-19T05:11:38;100.93;;;41.85;;
72688;SDS011;61053;52.166;4.506;2022-08-19T05:14:04;123.93;;;42.72;;
72688;SDS011;61053;52.166;4.506;2022-08-19T05:16:31;117.15;;;43.80;;
72688;SDS011;61053;52.166;4.506;2022-08-19T05:18:56;116.68;;;43.65;;
72688;SDS011;61053;52.166;4.506;2022-08-19T05:21:41;111.40;;;41.58;;
72688;SDS011;61053;52.166;4.506;2022-08-19T05:24:26;107.95;;;42.10;;
72688;SDS011;61053;52.166;4.506;2022-08-19T05:26:54;110.20;;;41.78;;
72688;SDS011;61053;52.166;4.506;2022-08-19T05:29:25;120.57;;;46.22;;
72688;SDS011;61053;52.166;4.506;2022-08-19T05:31:53;122.05;;;44.70;;
72688;SDS011;61053;52.166;4.506;2022-08-19T05:34:20;118.18;;;43.70;;
72688;SDS011;61053;52.166;4.506;2022-08-19T05:36:51;113.93;;;43.22;;
72688;SDS011;61053;52.166;4.506;2022-08-19T05:39:24;114.13;;;43.88;;
72688;SDS011;61053;52.166;4.506;2022-08-19T05:41:59;111.03;;;43.08;;
72688;SDS011;61053;52.166;4.506;2022-08-19T05:44:30;102.63;;;41.60;;
72688;SDS011;61053;52.166;4.506;2022-08-19T05:46:59;105.55;;;42.72;;
72688;SDS011;61053;52.166;4.506;2022-08-19T05:49:28;106.78;;;40.25;;
72688;SDS011;61053;52.166;4.506;2022-08-19T05:51:55;116.45;;;42.22;;
72688;SDS011;61053;52.166;4.506;2022-08-19T05:54:21;114.10;;;42.72;;
72688;SDS011;61053;52.166;4.506;2022-08-19T05:56:48;100.18;;;40.53;;
72688;SDS011;61053;52.166;4.506;2022-08-19T05:59:16;106.90;;;39.83;;
72688;SDS011;61053;52.166;4.506;2022-08-19T06:01:45;93.15;;;40.08;;
72688;SDS011;61053;52.166;4.506;2022-08-19T06:04:11;97.20;;;39.83;;
72688;SDS011;61053;52.166;4.506;2022-08-19T06:06:42;101.40;;;40.90;;
72688;SDS011;61053;52.166;4.506;2022-08-19T06:09:08;103.95;;;40.88;;
72688;SDS011;61053;52.166;4.506;2022-08-19T06:11:36;89.07;;;39.60;;
72688;SDS011;61053;52.166;4.506;2022-08-19T06:14:10;94.20;;;39.55;;
72688;SDS011;61053;52.166;4.506;2022-08-19T06:16:41;96.18;;;39.67;;
72688;SDS011;61053;52.166;4.506;2022-08-19T06:19:08;85.72;;;36.97;;
72688;SDS011;61053;52.166;4.506;2022-08-19T06:21:39;90.30;;;39.70;;
72688;SDS011;61053;52.166;4.506;2022-08-19T06:24:08;91.47;;;38.35;;
72688;SDS011;61053;52.166;4.506;2022-08-19T06:26:37;89.03;;;36.00;;
72688;SDS011;61053;52.166;4.506;2022-08-19T06:29:08;85.82;;;35.33;;
72688;SDS011;61053;52.166;4.506;2022-08-19T06:31:40;80.63;;;33.63;;
72688;SDS011;61053;52.166;4.506;2022-08-19T06:34:14;77.43;;;35.42;;
72688;SDS011;61053;52.166;4.506;2022-08-19T06:36:42;74.03;;;32.42;;
72688;SDS011;61053;52.166;4.506;2022-08-19T06:39:15;77.28;;;33.88;;
72688;SDS011;61053;52.166;4.506;2022-08-19T06:41:49;75.00;;;31.77;;
72688;SDS011;61053;52.166;4.506;2022-08-19T06:44:19;75.40;;;32.53;;
72688;SDS011;61053;52.166;4.506;2022-08-19T06:46:46;69.45;;;31.08;;
72688;SDS011;61053;52.166;4.506;2022-08-19T06:49:13;77.70;;;31.90;;
72688;SDS011;61053;52.166;4.506;2022-08-19T06:51:42;60.58;;;30.85;;
72688;SDS011;61053;52.166;4.506;2022-08-19T06:54:12;62.97;;;30.93;;
72688;SDS011;61053;52.166;4.506;2022-08-19T06:56:39;66.85;;;30.23;;
72688;SDS011;61053;52.166;4.506;2022-08-19T06:59:07;61.97;;;28.52;;
72688;SDS011;61053;52.166;4.506;2022-08-19T07:01:38;56.28;;;26.65;;
72688;SDS011;61053;52.166;4.506;2022-08-19T07:04:07;50.72;;;26.65;;
72688;SDS011;61053;52.166;4.506;2022-08-19T07:06:34;52.63;;;26.42;;
72688;SDS011;61053;52.166;4.506;2022-08-19T07:09:01;53.63;;;24.10;;
72688;SDS011;61053;52.166;4.506;2022-08-19T07:11:32;42.15;;;23.35;;
72688;SDS011;61053;52.166;4.506;2022-08-19T07:13:58;49.90;;;21.90;;
72688;SDS011;61053;52.166;4.506;2022-08-19T07:16:25;39.92;;;21.50;;
72688;SDS011;61053;52.166;4.506;2022-08-19T07:18:55;46.88;;;23.23;;
72688;SDS011;61053;52.166;4.506;2022-08-19T07:21:25;44.25;;;20.52;;
72688;SDS011;61053;52.166;4.506;2022-08-19T07:23:53;42.85;;;21.60;;
72688;SDS011;61053;52.166;4.506;2022-08-19T07:26:22;38.88;;;20.05;;
72688;SDS011;61053;52.166;4.506;2022-08-19T07:28:53;48.20;;;20.95;;
72688;SDS011;61053;52.166;4.506;2022-08-19T07:31:20;35.63;;;17.58;;
72688;SDS011;61053;52.166;4.506;2022-08-19T07:33:50;35.53;;;17.65;;
72688;SDS011;61053;52.166;4.506;2022-08-19T07:36:20;31.95;;;15.80;;
72688;SDS011;61053;52.166;4.506;2022-08-19T07:38:50;27.38;;;13.45;;
72688;SDS011;61053;52.166;4.506;2022-08-19T07:41:18;33.47;;;14.38;;
72688;SDS011;61053;52.166;4.506;2022-08-19T07:43:48;32.95;;;14.38;;
72688;SDS011;61053;52.166;4.506;2022-08-19T07:46:14;32.17;;;14.43;;
72688;SDS011;61053;52.166;4.506;2022-08-19T07:48:42;30.02;;;13.20;;
72688;SDS011;61053;52.166;4.506;2022-08-19T07:51:12;23.15;;;10.70;;
72688;SDS011;61053;52.166;4.506;2022-08-19T07:53:40;22.75;;;9.88;;
72688;SDS011;61053;52.166;4.506;2022-08-19T07:56:05;22.00;;;8.20;;
72688;SDS011;61053;52.166;4.506;2022-08-19T07:58:32;20.30;;;7.97;;
72688;SDS011;61053;52.166;4.506;2022-08-19T08:01:03;16.50;;;7.28;;
72688;SDS011;61053;52.166;4.506;2022-08-19T08:03:33;18.50;;;7.35;;
72688;SDS011;61053;52.166;4.506;2022-08-19T08:06:17;11.95;;;6.63;;
72688;SDS011;61053;52.166;4.506;2022-08-19T08:09:04;20.92;;;7.63;;
72688;SDS011;61053;52.166;4.506;2022-08-19T08:11:41;14.82;;;7.28;;
72688;SDS011;61053;52.166;4.506;2022-08-19T08:14:16;13.73;;;7.55;;
72688;SDS011;61053;52.166;4.506;2022-08-19T08:16:47;13.15;;;7.70;;
72688;SDS011;61053;52.166;4.506;2022-08-19T08:19:15;18.67;;;8.10;;
72688;SDS011;61053;52.166;4.506;2022-08-19T08:21:44;14.70;;;8.02;;
72688;SDS011;61053;52.166;4.506;2022-08-19T08:24:10;21.38;;;8.45;;
72688;SDS011;61053;52.166;4.506;2022-08-19T08:26:37;15.48;;;8.32;;
72688;SDS011;61053;52.166;4.506;2022-08-19T08:29:03;13.77;;;8.57;;
72688;SDS011;61053;52.166;4.506;2022-08-19T08:31:28;14.02;;;7.30;;
72688;SDS011;61053;52.166;4.506;2022-08-19T08:33:54;12.32;;;7.30;;
72688;SDS011;61053;52.166;4.506;2022-08-19T08:36:20;13.25;;;7.13;;
72688;SDS011;61053;52.166;4.506;2022-08-19T08:38:45;13.65;;;7.07;;
72688;SDS011;61053;52.166;4.506;2022-08-19T08:41:17;11.30;;;6.82;;
72688;SDS011;61053;52.166;4.506;2022-08-19T08:44:13;12.60;;;6.45;;
72688;SDS011;61053;52.166;4.506;2022-08-19T08:47:09;11.52;;;6.38;;
72688;SDS011;61053;52.166;4.506;2022-08-19T08:49:49;13.45;;;6.63;;
72688;SDS011;61053;52.166;4.506;2022-08-19T08:54:55;12.68;;;6.57;;
72688;SDS011;61053;52.166;4.506;2022-08-19T08:57:29;14.73;;;6.63;;
72688;SDS011;61053;52.166;4.506;2022-08-19T09:00:05;17.98;;;7.47;;
72688;SDS011;61053;52.166;4.506;2022-08-19T09:02:39;15.55;;;6.65;;
72688;SDS011;61053;52.166;4.506;2022-08-19T09:05:04;16.30;;;6.50;;
72688;SDS011;61053;52.166;4.506;2022-08-19T09:07:39;11.43;;;5.65;;
72688;SDS011;61053;52.166;4.506;2022-08-19T09:10:43;11.40;;;5.43;;
72688;SDS011;61053;52.166;4.506;2022-08-19T09:16:12;15.60;;;5.45;;
72688;SDS011;61053;52.166;4.506;2022-08-19T09:18:47;14.23;;;5.43;;
72688;SDS011;61053;52.166;4.506;2022-08-19T09:21:20;16.08;;;5.45;;
72688;SDS011;61053;52.166;4.506;2022-08-19T09:23:47;11.80;;;5.03;;
72688;SDS011;61053;52.166;4.506;2022-08-19T09:26:16;14.65;;;5.15;;
72688;SDS011;61053;52.166;4.506;2022-08-19T09:28:45;21.08;;;5.00;;
72688;SDS011;61053;52.166;4.506;2022-08-19T09:31:16;11.48;;;4.90;;
72688;SDS011;61053;52.166;4.506;2022-08-19T09:33:45;17.52;;;6.05;;
72688;SDS011;61053;52.166;4.506;2022-08-19T09:36:13;10.35;;;5.10;;
72688;SDS011;61053;52.166;4.506;2022-08-19T09:38:41;14.45;;;5.53;;
72688;SDS011;61053;52.166;4.506;2022-08-19T09:41:08;10.32;;;4.90;;
72688;SDS011;61053;52.166;4.506;2022-08-19T09:43:39;12.43;;;4.75;;
72688;SDS011;61053;52.166;4.506;2022-08-19T09:46:07;14.00;;;4.60;;
72688;SDS011;61053;52.166;4.506;2022-08-19T09:48:37;11.32;;;4.20;;
72688;SDS011;61053;52.166;4.506;2022-08-19T09:51:06;8.48;;;3.88;;
72688;SDS011;61053;52.166;4.506;2022-08-19T09:53:41;9.45;;;3.90;;
72688;SDS011;61053;52.166;4.506;2022-08-19T09:56:12;11.30;;;3.83;;
72688;SDS011;61053;52.166;4.506;2022-08-19T09:58:40;8.05;;;3.42;;
72688;SDS011;61053;52.166;4.506;2022-08-19T10:01:06;8.65;;;3.58;;
72688;SDS011;61053;52.166;4.506;2022-08-19T10:03:36;7.45;;;3.53;;
72688;SDS011;61053;52.166;4.506;2022-08-19T10:06:02;8.80;;;3.47;;
72688;SDS011;61053;52.166;4.506;2022-08-19T10:08:32;10.15;;;3.80;;
72688;SDS011;61053;52.166;4.506;2022-08-19T10:11:02;10.43;;;3.88;;
72688;SDS011;61053;52.166;4.506;2022-08-19T10:13:29;9.48;;;3.72;;
72688;SDS011;61053;52.166;4.506;2022-08-19T10:16:02;6.35;;;3.40;;
72688;SDS011;61053;52.166;4.506;2022-08-19T10:18:35;11.77;;;3.55;;
72688;SDS011;61053;52.166;4.506;2022-08-19T10:23:33;9.13;;;4.00;;
72688;SDS011;61053;52.166;4.506;2022-08-19T10:26:05;9.25;;;3.80;;
72688;SDS011;61053;52.166;4.506;2022-08-19T10:28:35;7.53;;;3.60;;
72688;SDS011;61053;52.166;4.506;2022-08-19T10:31:08;9.25;;;3.55;;
72688;SDS011;61053;52.166;4.506;2022-08-19T10:33:42;8.40;;;3.22;;
72688;SDS011;61053;52.166;4.506;2022-08-19T10:36:17;7.18;;;3.28;;
72688;SDS011;61053;52.166;4.506;2022-08-19T10:38:49;10.55;;;3.22;;
72688;SDS011;61053;52.166;4.506;2022-08-19T10:41:19;8.18;;;2.90;;
72688;SDS011;61053;52.166;4.506;2022-08-19T10:43:58;6.07;;;2.67;;
72688;SDS011;61053;52.166;4.506;2022-08-19T10:48:57;5.68;;;2.47;;
72688;SDS011;61053;52.166;4.506;2022-08-19T10:51:25;7.30;;;2.55;;
72688;SDS011;61053;52.166;4.506;2022-08-19T10:54:09;5.80;;;2.22;;
72688;SDS011;61053;52.166;4.506;2022-08-19T10:56:35;8.52;;;3.08;;
72688;SDS011;61053;52.166;4.506;2022-08-19T10:59:17;7.68;;;2.55;;
72688;SDS011;61053;52.166;4.506;2022-08-19T11:01:58;7.50;;;3.10;;
72688;SDS011;61053;52.166;4.506;2022-08-19T11:04:26;9.30;;;2.53;;
72688;SDS011;61053;52.166;4.506;2022-08-19T11:06:53;7.00;;;2.50;;
72688;SDS011;61053;52.166;4.506;2022-08-19T11:09:20;8.02;;;2.05;;
72688;SDS011;61053;52.166;4.506;2022-08-19T11:11:49;7.85;;;2.20;;
72688;SDS011;61053;52.166;4.506;2022-08-19T11:14:19;6.55;;;2.05;;
72688;SDS011;61053;52.166;4.506;2022-08-19T11:16:49;6.57;;;2.17;;
72688;SDS011;61053;52.166;4.506;2022-08-19T11:19:15;6.45;;;2.25;;
72688;SDS011;61053;52.166;4.506;2022-08-19T11:21:44;6.43;;;2.08;;
72688;SDS011;61053;52.166;4.506;2022-08-19T11:24:14;5.15;;;2.67;;
72688;SDS011;61053;52.166;4.506;2022-08-19T11:26:46;4.72;;;2.28;;
72688;SDS011;61053;52.166;4.506;2022-08-19T11:29:14;6.63;;;2.20;;
72688;SDS011;61053;52.166;4.506;2022-08-19T11:31:45;6.85;;;3.22;;
72688;SDS011;61053;52.166;4.506;2022-08-19T11:34:16;5.85;;;2.03;;
72688;SDS011;61053;52.166;4.506;2022-08-19T11:36:46;4.65;;;1.80;;
72688;SDS011;61053;52.166;4.506;2022-08-19T11:39:14;8.63;;;1.77;;
72688;SDS011;61053;52.166;4.506;2022-08-19T11:41:43;9.57;;;2.03;;
72688;SDS011;61053;52.166;4.506;2022-08-19T11:44:08;9.80;;;2.45;;
72688;SDS011;61053;52.166;4.506;2022-08-19T11:46:35;4.63;;;1.70;;
72688;SDS011;61053;52.166;4.506;2022-08-19T11:49:03;5.35;;;1.88;;
72688;SDS011;61053;52.166;4.506;2022-08-19T11:51:32;3.97;;;1.60;;
72688;SDS011;61053;52.166;4.506;2022-08-19T11:53:59;3.72;;;2.00;;
72688;SDS011;61053;52.166;4.506;2022-08-19T11:56:25;7.75;;;2.13;;
72688;SDS011;61053;52.166;4.506;2022-08-19T11:58:52;2.85;;;1.70;;
72688;SDS011;61053;52.166;4.506;2022-08-19T12:01:21;2.33;;;1.90;;
72688;SDS011;61053;52.166;4.506;2022-08-19T12:03:51;5.82;;;2.10;;
72688;SDS011;61053;52.166;4.506;2022-08-19T12:06:24;4.07;;;2.03;;
72688;SDS011;61053;52.166;4.506;2022-08-19T12:09:12;3.08;;;1.88;;
72688;SDS011;61053;52.166;4.506;2022-08-19T12:11:39;4.47;;;2.03;;
72688;SDS011;61053;52.166;4.506;2022-08-19T12:14:06;3.95;;;1.60;;
72688;SDS011;61053;52.166;4.506;2022-08-19T12:16:36;3.92;;;1.73;;
72688;SDS011;61053;52.166;4.506;2022-08-19T12:19:06;2.42;;;1.70;;
72688;SDS011;61053;52.166;4.506;2022-08-19T12:21:32;3.40;;;1.70;;
72688;SDS011;61053;52.166;4.506;2022-08-19T12:24:01;4.88;;;2.00;;
72688;SDS011;61053;52.166;4.506;2022-08-19T12:26:30;4.63;;;1.85;;
72688;SDS011;61053;52.166;4.506;2022-08-19T12:28:58;4.10;;;1.75;;
72688;SDS011;61053;52.166;4.506;2022-08-19T12:31:26;5.40;;;2.15;;
72688;SDS011;61053;52.166;4.506;2022-08-19T12:33:54;4.97;;;2.00;;
72688;SDS011;61053;52.166;4.506;2022-08-19T12:36:21;4.38;;;1.65;;
72688;SDS011;61053;52.166;4.506;2022-08-19T12:38:48;4.60;;;1.83;;
72688;SDS011;61053;52.166;4.506;2022-08-19T12:41:14;4.78;;;1.98;;
72688;SDS011;61053;52.166;4.506;2022-08-19T12:43:43;3.60;;;1.80;;
72688;SDS011;61053;52.166;4.506;2022-08-19T12:46:10;6.70;;;1.73;;
72688;SDS011;61053;52.166;4.506;2022-08-19T12:48:36;4.28;;;1.77;;
72688;SDS011;61053;52.166;4.506;2022-08-19T12:51:08;3.60;;;1.92;;
72688;SDS011;61053;52.166;4.506;2022-08-19T12:53:44;3.05;;;1.50;;
72688;SDS011;61053;52.166;4.506;2022-08-19T12:56:14;3.05;;;1.52;;
72688;SDS011;61053;52.166;4.506;2022-08-19T12:58:40;4.53;;;1.75;;
72688;SDS011;61053;52.166;4.506;2022-08-19T13:01:11;6.22;;;2.00;;
72688;SDS011;61053;52.166;4.506;2022-08-19T13:03:41;3.60;;;2.10;;
72688;SDS011;61053;52.166;4.506;2022-08-19T13:06:10;5.22;;;2.65;;
72688;SDS011;61053;52.166;4.506;2022-08-19T13:08:40;2.55;;;1.67;;
72688;SDS011;61053;52.166;4.506;2022-08-19T13:11:06;3.83;;;2.10;;
72688;SDS011;61053;52.166;4.506;2022-08-19T13:13:35;6.07;;;2.00;;
72688;SDS011;61053;52.166;4.506;2022-08-19T13:16:01;3.25;;;2.08;;
72688;SDS011;61053;52.166;4.506;2022-08-19T13:18:28;3.20;;;1.80;;
72688;SDS011;61053;52.166;4.506;2022-08-19T13:20:54;6.22;;;1.88;;
72688;SDS011;61053;52.166;4.506;2022-08-19T13:23:21;5.88;;;1.67;;
72688;SDS011;61053;52.166;4.506;2022-08-19T13:25:55;2.78;;;1.70;;
72688;SDS011;61053;52.166;4.506;2022-08-19T13:28:22;4.40;;;1.65;;
72688;SDS011;61053;52.166;4.506;2022-08-19T13:30:48;5.55;;;1.92;;
72688;SDS011;61053;52.166;4.506;2022-08-19T13:33:32;4.55;;;2.03;;
72688;SDS011;61053;52.166;4.506;2022-08-19T13:35:58;4.95;;;1.83;;
72688;SDS011;61053;52.166;4.506;2022-08-19T13:38:25;3.72;;;1.65;;
72688;SDS011;61053;52.166;4.506;2022-08-19T13:40:53;2.55;;;1.67;;
72688;SDS011;61053;52.166;4.506;2022-08-19T13:43:21;6.65;;;1.55;;
72688;SDS011;61053;52.166;4.506;2022-08-19T13:45:53;4.00;;;1.63;;
72688;SDS011;61053;52.166;4.506;2022-08-19T13:48:23;3.83;;;1.42;;
72688;SDS011;61053;52.166;4.506;2022-08-19T13:50:51;4.75;;;1.30;;
72688;SDS011;61053;52.166;4.506;2022-08-19T13:53:17;3.47;;;1.63;;
72688;SDS011;61053;52.166;4.506;2022-08-19T13:55:43;2.42;;;1.60;;
72688;SDS011;61053;52.166;4.506;2022-08-19T13:58:10;2.83;;;1.67;;
72688;SDS011;61053;52.166;4.506;2022-08-19T14:00:42;2.92;;;1.73;;
72688;SDS011;61053;52.166;4.506;2022-08-19T14:03:11;1.50;;;1.35;;
72688;SDS011;61053;52.166;4.506;2022-08-19T14:05:36;2.92;;;1.58;;
72688;SDS011;61053;52.166;4.506;2022-08-19T14:08:03;3.33;;;1.88;;
72688;SDS011;61053;52.166;4.506;2022-08-19T14:10:29;3.92;;;1.60;;
72688;SDS011;61053;52.166;4.506;2022-08-19T14:12:57;2.15;;;1.63;;
72688;SDS011;61053;52.166;4.506;2022-08-19T14:15:26;3.75;;;1.65;;
72688;SDS011;61053;52.166;4.506;2022-08-19T14:17:54;4.07;;;1.92;;
72688;SDS011;61053;52.166;4.506;2022-08-19T14:20:19;2.92;;;1.73;;
72688;SDS011;61053;52.166;4.506;2022-08-19T14:22:46;1.60;;;1.40;;
72688;SDS011;61053;52.166;4.506;2022-08-19T14:25:19;5.10;;;1.67;;
72688;SDS011;61053;52.166;4.506;2022-08-19T14:27:48;7.75;;;2.03;;
72688;SDS011;61053;52.166;4.506;2022-08-19T14:30:23;3.20;;;1.90;;
72688;SDS011;61053;52.166;4.506;2022-08-19T14:32:56;6.20;;;2.00;;
72688;SDS011;61053;52.166;4.506;2022-08-19T14:35:24;4.68;;;2.60;;
72688;SDS011;61053;52.166;4.506;2022-08-19T14:37:52;3.33;;;1.80;;
72688;SDS011;61053;52.166;4.506;2022-08-19T14:40:21;3.75;;;1.88;;
72688;SDS011;61053;52.166;4.506;2022-08-19T14:42:54;2.75;;;1.77;;
72688;SDS011;61053;52.166;4.506;2022-08-19T14:45:28;2.75;;;1.48;;
72688;SDS011;61053;52.166;4.506;2022-08-19T14:48:00;3.78;;;2.13;;
72688;SDS011;61053;52.166;4.506;2022-08-19T14:50:27;2.78;;;2.15;;
72688;SDS011;61053;52.166;4.506;2022-08-19T14:53:04;4.65;;;2.33;;
72688;SDS011;61053;52.166;4.506;2022-08-19T14:55:34;4.80;;;2.33;;
72688;SDS011;61053;52.166;4.506;2022-08-19T14:58:00;4.07;;;2.05;;
72688;SDS011;61053;52.166;4.506;2022-08-19T15:00:28;4.03;;;2.17;;